createdAt,value
2024-04-03T00:00:45.926Z,322.09
2024-04-03T00:02:47.556Z,327.00
2024-04-03T00:04:49.208Z,332.45
2024-04-03T00:06:50.848Z,354.45
2024-04-03T00:08:52.470Z,354.36
2024-04-03T00:10:54.074Z,362.18
2024-04-03T00:12:55.772Z,363.73
2024-04-03T00:14:57.412Z,364.00
2024-04-03T00:16:59.047Z,362.36
2024-04-03T00:19:00.663Z,360.45
2024-04-03T00:21:03.976Z,358.00
2024-04-03T00:23:05.832Z,352.36
2024-04-03T00:25:07.460Z,342.00
2024-04-03T00:27:09.132Z,342.09
2024-04-03T00:29:11.450Z,343.18
2024-04-03T00:31:13.062Z,344.00
2024-04-03T00:33:14.693Z,338.36
2024-04-03T00:35:16.412Z,322.36
2024-04-03T00:37:18.918Z,327.09
2024-04-03T00:39:21.602Z,326.64
2024-04-03T00:41:23.311Z,327.64
2024-04-03T00:43:26.150Z,332.64
2024-04-03T00:45:29.423Z,339.64
2024-04-03T00:47:31.062Z,344.82
2024-04-03T00:49:32.734Z,345.36
2024-04-03T00:51:35.952Z,344.36
2024-04-03T00:53:40.711Z,342.27
2024-04-03T00:55:43.054Z,341.55
2024-04-03T00:57:45.065Z,340.09
2024-04-03T00:59:46.697Z,339.73
2024-04-03T01:01:51.949Z,331.64
2024-04-03T01:03:55.998Z,323.82
2024-04-03T01:06:01.981Z,335.18
2024-04-03T01:08:03.882Z,347.55
2024-04-03T01:10:06.705Z,349.00
2024-04-03T01:12:08.577Z,349.00
2024-04-03T01:14:10.213Z,349.55
2024-04-03T01:16:12.121Z,352.18
2024-04-03T01:18:13.748Z,353.27
2024-04-03T01:20:18.999Z,355.00
2024-04-03T01:22:20.615Z,355.09
2024-04-03T01:24:23.619Z,354.55
2024-04-03T01:26:27.164Z,353.09
2024-04-03T01:28:28.823Z,353.73
2024-04-03T01:30:30.444Z,354.73
2024-04-03T01:32:32.644Z,363.18
2024-04-03T01:34:34.278Z,377.09
2024-04-03T01:36:35.907Z,381.18
2024-04-03T01:38:37.561Z,375.73
2024-04-03T01:40:39.185Z,372.00
2024-04-03T01:42:40.815Z,370.64
2024-04-03T01:44:42.505Z,369.27
2024-04-03T01:46:44.142Z,369.00
2024-04-03T01:48:45.762Z,368.64
2024-04-03T01:50:47.776Z,368.00
2024-04-03T01:52:49.429Z,368.00
2024-04-03T01:54:51.067Z,368.00
2024-04-03T01:56:53.145Z,367.36
2024-04-03T01:58:54.757Z,364.55
2024-04-03T02:00:56.418Z,363.00
2024-04-03T02:02:58.539Z,363.27
2024-04-03T02:05:00.597Z,364.36
2024-04-03T02:07:02.268Z,365.27
2024-04-03T02:09:03.956Z,366.00
2024-04-03T02:11:05.572Z,366.00
2024-04-03T02:13:07.216Z,366.00
2024-04-03T02:15:08.850Z,365.64
2024-04-03T02:17:10.477Z,364.64
2024-04-03T02:19:13.028Z,362.73
2024-04-03T02:21:14.637Z,362.00
2024-04-03T02:23:20.168Z,362.00
2024-04-03T02:25:26.693Z,361.55
2024-04-03T02:27:28.437Z,361.64
2024-04-03T02:29:30.122Z,362.36
2024-04-03T02:31:31.766Z,362.73
2024-04-03T02:33:33.420Z,362.00
2024-04-03T02:35:35.038Z,362.00
2024-04-03T02:37:36.667Z,363.91
2024-04-03T02:39:38.317Z,374.00
2024-04-03T02:41:39.935Z,374.45
2024-04-03T02:43:41.802Z,373.09
2024-04-03T02:45:43.432Z,373.82
2024-04-03T02:47:45.066Z,378.00
2024-04-03T02:49:46.813Z,380.27
2024-04-03T02:51:48.443Z,378.64
2024-04-03T02:53:50.210Z,377.45
2024-04-03T02:55:51.830Z,377.91
2024-04-03T02:57:53.458Z,378.45
2024-04-03T02:59:55.091Z,379.55
2024-04-03T03:01:56.697Z,379.00
2024-04-03T03:03:58.355Z,379.91
2024-04-03T03:06:01.851Z,382.00
2024-04-03T03:08:03.708Z,381.00
2024-04-03T03:10:05.347Z,377.64
2024-04-03T03:12:07.109Z,376.00
2024-04-03T03:14:08.734Z,376.09
2024-04-03T03:16:10.380Z,378.00
2024-04-03T03:18:12.024Z,379.00
2024-04-03T03:20:13.676Z,378.55
2024-04-03T03:22:15.328Z,378.00
2024-04-03T03:24:19.811Z,378.00
2024-04-03T03:26:21.524Z,378.00
2024-04-03T03:28:23.160Z,377.09
2024-04-03T03:30:24.820Z,377.00
2024-04-03T03:32:26.447Z,377.00
2024-04-03T03:34:28.081Z,377.00
2024-04-03T03:36:29.695Z,378.18
2024-04-03T03:38:31.373Z,379.27
2024-04-03T03:40:36.724Z,380.27
2024-04-03T03:42:38.342Z,381.00
2024-04-03T03:44:42.602Z,381.00
2024-04-03T03:46:44.642Z,380.00
2024-04-03T03:49:04.710Z,379.36
2024-04-03T03:51:31.709Z,379.09
2024-04-03T03:53:33.337Z,386.82
2024-04-03T03:55:34.976Z,381.45
2024-04-03T03:57:36.612Z,370.73
2024-04-03T03:59:38.241Z,366.36
2024-04-03T04:01:39.885Z,367.73
2024-04-03T04:03:41.629Z,366.55
2024-04-03T04:05:43.283Z,363.64
2024-04-03T04:07:44.900Z,361.18
2024-04-03T04:09:50.743Z,361.27
2024-04-03T04:11:52.391Z,361.73
2024-04-03T04:13:54.002Z,360.36
2024-04-03T04:16:00.001Z,358.73
2024-04-03T04:18:01.639Z,357.82
2024-04-03T04:20:07.651Z,357.00
2024-04-03T04:22:09.296Z,356.45
2024-04-03T04:24:10.928Z,355.09
2024-04-03T04:26:12.572Z,353.36
2024-04-03T04:28:14.211Z,352.09
2024-04-03T04:30:15.898Z,352.45
2024-04-03T04:32:17.567Z,356.55
2024-04-03T04:34:19.207Z,361.73
2024-04-03T04:36:22.135Z,359.82
2024-04-03T04:38:25.022Z,355.55
2024-04-03T04:40:28.114Z,351.00
2024-04-03T04:42:29.734Z,351.45
2024-04-03T04:44:31.934Z,361.64
2024-04-03T04:46:33.616Z,367.73
2024-04-03T04:48:35.278Z,368.00
2024-04-03T04:50:36.905Z,367.18
2024-04-03T04:52:42.064Z,366.82
2024-04-03T04:54:43.692Z,365.73
2024-04-03T04:56:45.333Z,362.36
2024-04-03T04:58:46.995Z,358.82
2024-04-03T05:00:50.211Z,357.27
2024-04-03T05:02:51.833Z,354.27
2024-04-03T05:04:53.470Z,349.64
2024-04-03T05:07:00.981Z,345.00
2024-04-03T05:09:03.242Z,342.09
2024-04-03T05:11:04.868Z,339.00
2024-04-03T05:13:06.496Z,333.91
2024-04-03T05:15:08.958Z,332.00
2024-04-03T05:17:10.594Z,332.00
2024-04-03T05:19:12.214Z,331.82
2024-04-03T05:21:15.426Z,331.00
2024-04-03T05:23:17.037Z,330.09
2024-04-03T05:25:18.939Z,331.64
2024-04-03T05:27:20.554Z,332.73
2024-04-03T05:29:22.183Z,330.91
2024-04-03T05:31:23.807Z,328.73
2024-04-03T05:33:25.445Z,326.91
2024-04-03T05:35:27.082Z,324.55
2024-04-03T05:37:28.698Z,323.09
2024-04-03T05:39:30.486Z,321.45
2024-04-03T05:41:32.107Z,319.00
2024-04-03T05:43:33.725Z,315.45
2024-04-03T05:45:35.352Z,311.73
2024-04-03T05:47:36.965Z,310.00
2024-04-03T05:49:38.594Z,308.91
2024-04-03T05:51:40.211Z,308.00
2024-04-03T05:53:41.831Z,308.55
2024-04-03T05:55:52.790Z,309.91
2024-04-03T05:57:54.544Z,308.73
2024-04-03T05:59:56.555Z,306.64
2024-04-03T06:01:58.166Z,303.91
2024-04-03T06:03:59.819Z,300.36
2024-04-03T06:06:01.476Z,296.45
2024-04-03T06:08:03.330Z,295.91
2024-04-03T06:10:05.446Z,296.73
2024-04-03T06:12:07.236Z,296.82
2024-04-03T06:14:09.429Z,294.36
2024-04-03T06:16:11.044Z,290.45
2024-04-03T06:18:13.136Z,286.55
2024-04-03T06:20:14.789Z,278.18
2024-04-03T06:22:16.443Z,275.73
2024-04-03T06:24:18.055Z,272.00
2024-04-03T06:26:19.693Z,269.91
2024-04-03T06:28:21.302Z,290.73
2024-04-03T06:30:25.673Z,292.45
2024-04-03T06:32:28.873Z,267.36
2024-04-03T06:34:30.496Z,267.55
2024-04-03T06:36:32.136Z,260.73
2024-04-03T06:38:33.789Z,260.27
2024-04-03T06:40:35.422Z,256.82
2024-04-03T06:42:37.496Z,257.82
2024-04-03T06:44:39.902Z,259.09
2024-04-03T06:46:41.524Z,257.36
2024-04-03T06:48:44.543Z,257.27
2024-04-03T06:50:53.211Z,257.73
2024-04-03T06:52:54.833Z,258.00
2024-04-03T06:54:56.722Z,258.00
2024-04-03T06:56:58.347Z,260.73
2024-04-03T06:58:59.987Z,263.27
2024-04-03T07:01:05.138Z,261.00
2024-04-03T07:03:06.764Z,256.91
2024-04-03T07:05:08.650Z,267.00
2024-04-03T07:07:10.970Z,260.27
2024-04-03T07:09:13.044Z,249.27
2024-04-03T07:11:15.493Z,247.36
2024-04-03T07:13:17.433Z,243.00
2024-04-03T07:15:19.064Z,232.18
2024-04-03T07:17:20.703Z,228.55
2024-04-03T07:19:22.370Z,221.00
2024-04-03T07:21:26.909Z,226.36
2024-04-03T07:23:30.199Z,228.73
2024-04-03T07:25:31.829Z,229.45
2024-04-03T07:27:33.498Z,243.00
2024-04-03T07:29:35.124Z,251.64
2024-04-03T07:31:36.774Z,250.27
2024-04-03T07:33:38.379Z,264.36
2024-04-03T07:35:40.680Z,260.91
2024-04-03T07:37:44.505Z,250.73
2024-04-03T07:39:46.132Z,214.73
2024-04-03T07:41:48.106Z,196.55
2024-04-03T07:43:51.686Z,179.73
2024-04-03T07:45:59.977Z,187.55
2024-04-03T07:48:01.653Z,176.64
2024-04-03T07:50:07.769Z,176.36
2024-04-03T07:52:09.481Z,187.09
2024-04-03T07:54:11.105Z,187.27
2024-04-03T07:56:16.311Z,181.64
2024-04-03T07:58:17.927Z,177.27
2024-04-03T08:00:19.678Z,182.27
2024-04-03T08:02:21.322Z,172.27
2024-04-03T08:04:23.545Z,166.09
2024-04-03T08:06:25.718Z,192.73
2024-04-03T08:08:28.752Z,217.73
2024-04-03T08:10:30.368Z,205.09
2024-04-03T08:12:33.243Z,186.27
2024-04-03T08:14:34.861Z,180.36
2024-04-03T08:16:39.408Z,188.82
2024-04-03T08:18:41.279Z,197.91
2024-04-03T08:20:43.257Z,202.09
2024-04-03T08:22:44.900Z,209.36
2024-04-03T08:24:47.321Z,217.36
2024-04-03T08:26:48.963Z,218.45
2024-04-03T08:28:50.578Z,224.64
2024-04-03T08:30:52.861Z,219.91
2024-04-03T08:32:54.864Z,218.82
2024-04-03T08:34:56.501Z,189.27
2024-04-03T08:36:58.608Z,179.27
2024-04-03T08:39:00.258Z,217.45
2024-04-03T08:41:02.291Z,188.91
2024-04-03T08:43:06.153Z,144.18
2024-04-03T08:45:12.742Z,146.45
2024-04-03T08:47:15.613Z,153.00
2024-04-03T08:49:18.111Z,147.09
2024-04-03T08:51:21.620Z,135.55
2024-04-03T08:53:24.536Z,164.09
2024-04-03T08:55:27.175Z,179.91
2024-04-03T08:57:29.391Z,179.36
2024-04-03T08:59:32.586Z,147.82
2024-04-03T09:01:34.664Z,134.36
2024-04-03T09:03:36.964Z,111.09
2024-04-03T09:05:39.124Z,112.64
2024-04-03T09:07:40.888Z,120.09
2024-04-03T09:09:42.523Z,118.73
2024-04-03T09:11:45.124Z,103.45
2024-04-03T09:13:54.127Z,129.82
2024-04-03T09:15:55.763Z,152.91
2024-04-03T09:18:04.376Z,140.55
2024-04-03T09:20:06.366Z,146.82
2024-04-03T09:22:08.025Z,173.91
2024-04-03T09:24:10.030Z,188.09
2024-04-03T09:26:12.078Z,172.00
2024-04-03T09:28:13.804Z,176.36
2024-04-03T09:30:15.462Z,172.55
2024-04-03T09:32:17.075Z,173.55
2024-04-03T09:34:20.377Z,193.73
2024-04-03T09:36:23.168Z,184.64
2024-04-03T09:38:25.014Z,162.91
2024-04-03T09:40:28.970Z,157.00
2024-04-03T09:42:32.259Z,131.09
2024-04-03T09:44:37.438Z,145.09
2024-04-03T09:46:54.562Z,135.55
2024-04-03T09:48:58.461Z,97.64
2024-04-03T09:51:01.017Z,56.18
2024-04-03T09:53:24.025Z,43.36
2024-04-03T09:55:28.721Z,41.45
2024-04-03T09:57:30.641Z,40.82
2024-04-03T09:59:36.595Z,54.91
2024-04-03T10:01:39.944Z,42.09
2024-04-03T10:03:41.847Z,35.55
2024-04-03T10:05:43.634Z,40.00
2024-04-03T10:08:03.175Z,44.36
2024-04-03T10:10:04.992Z,46.09
2024-04-03T10:12:15.062Z,47.00
2024-04-03T10:14:37.705Z,48.09
2024-04-03T10:16:39.360Z,49.64
2024-04-03T10:18:51.291Z,50.00
2024-04-03T10:20:52.915Z,47.45
2024-04-03T10:22:54.909Z,47.45
2024-04-03T10:24:56.550Z,69.18
2024-04-03T10:26:58.850Z,86.36
2024-04-03T10:29:03.635Z,76.18
2024-04-03T10:31:09.708Z,64.45
2024-04-03T10:33:14.834Z,58.82
2024-04-03T10:35:16.499Z,54.36
2024-04-03T10:37:18.142Z,38.18
2024-04-03T10:39:19.910Z,34.45
2024-04-03T10:41:22.443Z,39.27
2024-04-03T10:43:24.172Z,26.64
2024-04-03T10:45:25.866Z,17.45
2024-04-03T10:47:30.027Z,20.00
2024-04-03T10:49:32.579Z,22.00
2024-04-03T10:51:34.277Z,22.45
2024-04-03T10:53:37.096Z,22.91
2024-04-03T10:55:39.591Z,20.09
2024-04-03T10:57:41.207Z,19.00
2024-04-03T10:59:43.342Z,19.00
2024-04-03T11:01:45.007Z,19.00
2024-04-03T11:03:51.411Z,18.27
2024-04-03T11:05:53.035Z,17.73
2024-04-03T11:07:55.597Z,14.82
2024-04-03T11:09:57.399Z,12.00
2024-04-03T11:12:02.460Z,11.82
2024-04-03T11:14:04.091Z,12.00
2024-04-03T11:16:10.497Z,11.18
2024-04-03T11:18:12.133Z,11.64
2024-04-03T11:20:13.783Z,12.27
2024-04-03T11:22:15.442Z,13.00
2024-04-03T11:24:17.082Z,13.00
2024-04-03T11:26:20.849Z,13.00
2024-04-03T11:28:22.474Z,13.00
2024-04-03T11:30:24.169Z,14.00
2024-04-03T11:32:25.916Z,21.36
2024-04-03T11:34:28.621Z,23.82
2024-04-03T11:36:30.285Z,27.09
2024-04-03T11:38:33.677Z,26.82
2024-04-03T11:40:37.720Z,25.45
2024-04-03T11:42:39.410Z,24.36
2024-04-03T11:44:41.171Z,21.64
2024-04-03T11:46:42.852Z,20.18
2024-04-03T11:48:44.522Z,22.09
2024-04-03T11:50:46.550Z,22.73
2024-04-03T11:52:48.179Z,20.45
2024-04-03T11:54:49.822Z,18.18
2024-04-03T11:56:54.746Z,18.00
2024-04-03T11:58:56.710Z,18.00
2024-04-03T12:00:58.345Z,16.82
2024-04-03T12:02:59.979Z,14.64
2024-04-03T12:05:01.613Z,13.27
2024-04-03T12:07:03.256Z,14.00
2024-04-03T12:09:05.658Z,15.55
2024-04-03T12:11:07.854Z,16.00
2024-04-03T12:13:09.480Z,18.18
2024-04-03T12:15:11.144Z,28.36
2024-04-03T12:17:14.740Z,32.27
2024-04-03T12:19:26.687Z,29.91
2024-04-03T12:21:28.523Z,28.09
2024-04-03T12:23:30.337Z,27.00
2024-04-03T12:25:32.170Z,26.45
2024-04-03T12:27:33.800Z,26.45
2024-04-03T12:29:36.178Z,26.55
2024-04-03T12:31:37.799Z,22.09
2024-04-03T12:33:39.419Z,19.00
2024-04-03T12:35:41.056Z,20.00
2024-04-03T12:38:06.610Z,20.00
2024-04-03T12:40:04.875Z,20.00
2024-04-03T12:42:06.569Z,20.36
2024-04-03T12:44:09.907Z,21.27
2024-04-03T12:46:13.790Z,22.00
2024-04-03T12:48:15.409Z,22.00
2024-04-03T12:50:17.111Z,21.36
2024-04-03T12:52:18.957Z,22.27
2024-04-03T12:54:20.609Z,24.27
2024-04-03T12:56:22.258Z,24.09
2024-04-03T12:58:23.897Z,21.73
2024-04-03T13:00:25.533Z,21.18
2024-04-03T13:02:29.030Z,22.00
2024-04-03T13:04:30.658Z,22.00
2024-04-03T13:06:38.251Z,23.00
2024-04-03T13:08:39.887Z,23.00
2024-04-03T13:10:41.724Z,24.00
2024-04-03T13:12:43.351Z,26.73
2024-04-03T13:14:45.051Z,27.82
2024-04-03T13:16:46.686Z,28.73
2024-04-03T13:18:48.725Z,28.55
2024-04-03T13:20:50.396Z,27.36
2024-04-03T13:22:57.033Z,25.18
2024-04-03T13:24:59.301Z,24.09
2024-04-03T13:27:00.940Z,24.00
2024-04-03T13:29:02.620Z,25.09
2024-04-03T13:31:04.319Z,27.45
2024-04-03T13:33:05.953Z,27.45
2024-04-03T13:35:07.578Z,30.18
2024-04-03T13:37:09.216Z,29.73
2024-04-03T13:39:11.967Z,28.64
2024-04-03T13:41:14.044Z,29.82
2024-04-03T13:43:17.667Z,32.45
2024-04-03T13:45:19.624Z,37.18
2024-04-03T13:47:21.251Z,39.00
2024-04-03T13:49:22.894Z,40.55
2024-04-03T13:51:27.721Z,38.00
2024-04-03T13:53:29.329Z,35.91
2024-04-03T13:55:30.959Z,35.00
2024-04-03T13:57:33.048Z,35.55
2024-04-03T13:59:34.897Z,40.27
2024-04-03T14:01:37.355Z,69.27
2024-04-03T14:03:39.417Z,60.27
2024-04-03T14:05:41.052Z,60.45
2024-04-03T14:07:42.922Z,58.09
2024-04-03T14:09:44.570Z,56.64
2024-04-03T14:11:46.388Z,54.36
2024-04-03T14:13:50.221Z,61.18
2024-04-03T14:15:51.858Z,59.73
2024-04-03T14:17:53.518Z,49.36
2024-04-03T14:19:55.147Z,41.18
2024-04-03T14:21:56.791Z,36.73
2024-04-03T14:23:58.422Z,38.91
2024-04-03T14:26:03.795Z,41.64
2024-04-03T14:28:06.020Z,41.00
2024-04-03T14:30:10.426Z,41.18
2024-04-03T14:32:12.077Z,45.55
2024-04-03T14:34:13.724Z,49.91
2024-04-03T14:36:15.353Z,68.36
2024-04-03T14:38:18.595Z,83.00
2024-04-03T14:40:20.955Z,79.18
2024-04-03T14:42:22.653Z,72.27
2024-04-03T14:44:24.924Z,49.82
2024-04-03T14:46:26.568Z,44.82
2024-04-03T14:48:29.610Z,45.91
2024-04-03T14:50:32.170Z,45.55
2024-04-03T14:52:34.079Z,46.00
2024-04-03T14:54:35.794Z,88.27
2024-04-03T14:56:37.442Z,82.64
2024-04-03T14:58:39.075Z,90.18
2024-04-03T15:00:42.410Z,95.64
2024-04-03T15:02:44.144Z,110.64
2024-04-03T15:04:45.842Z,97.91
2024-04-03T15:06:47.608Z,91.18
2024-04-03T15:08:51.936Z,77.27
2024-04-03T15:10:53.569Z,73.73
2024-04-03T15:12:55.191Z,61.82
2024-04-03T15:14:56.917Z,51.00
2024-04-03T15:17:09.602Z,56.27
2024-04-03T15:19:11.539Z,66.27
2024-04-03T15:21:13.383Z,74.82
2024-04-03T15:23:15.023Z,74.00
2024-04-03T15:25:16.710Z,71.91
2024-04-03T15:27:19.280Z,67.73
2024-04-03T15:29:23.083Z,59.18
2024-04-03T15:31:24.739Z,51.55
2024-04-03T15:33:26.365Z,52.73
2024-04-03T15:35:28.003Z,51.82
2024-04-03T15:37:29.854Z,60.00
2024-04-03T15:39:31.988Z,96.18
2024-04-03T15:41:34.154Z,101.27
2024-04-03T15:43:35.852Z,94.64
2024-04-03T15:45:39.888Z,107.91
2024-04-03T15:47:41.518Z,103.00
2024-04-03T15:49:43.487Z,100.64
2024-04-03T15:51:45.455Z,83.27
2024-04-03T15:53:49.182Z,70.18
2024-04-03T15:55:50.815Z,67.00
2024-04-03T15:57:52.578Z,88.45
2024-04-03T15:59:55.182Z,91.00
2024-04-03T16:01:56.910Z,93.55
2024-04-03T16:03:58.554Z,98.82
2024-04-03T16:06:00.209Z,96.27
2024-04-03T16:08:03.095Z,91.27
2024-04-03T16:10:05.211Z,90.18
2024-04-03T16:12:11.462Z,91.09
2024-04-03T16:14:13.912Z,89.73
2024-04-03T16:16:15.550Z,89.36
2024-04-03T16:18:17.177Z,107.82
2024-04-03T16:20:19.031Z,167.00
2024-04-03T16:22:22.750Z,151.73
2024-04-03T16:24:24.483Z,128.00
2024-04-03T16:26:26.111Z,139.00
2024-04-03T16:28:27.756Z,141.36
2024-04-03T16:30:29.379Z,138.09
2024-04-03T16:32:31.025Z,142.00
2024-04-03T16:34:32.681Z,126.18
2024-04-03T16:36:34.330Z,122.09
2024-04-03T16:38:36.041Z,118.00
2024-04-03T16:40:38.330Z,111.00
2024-04-03T16:42:40.665Z,98.00
2024-04-03T16:44:42.484Z,99.27
2024-04-03T16:46:44.793Z,119.36
2024-04-03T16:48:46.473Z,144.64
2024-04-03T16:50:48.182Z,135.45
2024-04-03T16:52:50.105Z,112.73
2024-04-03T16:54:54.704Z,109.00
2024-04-03T16:56:57.004Z,107.45
2024-04-03T16:58:58.683Z,110.55
2024-04-03T17:01:08.237Z,101.36
2024-04-03T17:03:09.867Z,89.82
2024-04-03T17:05:11.645Z,87.18
2024-04-03T17:07:13.788Z,74.00
2024-04-03T17:09:15.650Z,73.27
2024-04-03T17:11:17.307Z,77.36
2024-04-03T17:13:19.992Z,77.45
2024-04-03T17:15:21.675Z,98.18
2024-04-03T17:17:23.342Z,139.36
2024-04-03T17:19:25.772Z,134.18
2024-04-03T17:21:27.467Z,152.36
2024-04-03T17:23:29.993Z,149.00
2024-04-03T17:25:31.907Z,141.18
2024-04-03T17:27:33.734Z,155.00
2024-04-03T17:29:36.376Z,142.18
2024-04-03T17:31:38.235Z,119.27
2024-04-03T17:33:40.244Z,125.18
2024-04-03T17:35:43.059Z,125.27
2024-04-03T17:37:46.053Z,122.00
2024-04-03T17:39:47.811Z,139.36
2024-04-03T17:41:50.149Z,139.00
2024-04-03T17:43:53.648Z,119.45
2024-04-03T17:45:55.940Z,107.64
2024-04-03T17:47:57.884Z,96.64
2024-04-03T17:50:00.730Z,104.00
2024-04-03T17:52:02.934Z,106.18
2024-04-03T17:54:06.088Z,102.18
2024-04-03T17:56:08.239Z,110.09
2024-04-03T17:58:11.687Z,109.00
2024-04-03T18:00:14.435Z,133.45
2024-04-03T18:02:18.390Z,151.00
2024-04-03T18:04:20.407Z,138.91
2024-04-03T18:06:22.804Z,160.09
2024-04-03T18:08:28.404Z,163.18
2024-04-03T18:10:30.706Z,163.55
2024-04-03T18:12:35.279Z,179.00
2024-04-03T18:14:38.400Z,171.55
2024-04-03T18:16:40.717Z,173.55
2024-04-03T18:18:43.105Z,179.27
2024-04-03T18:20:46.171Z,168.00
2024-04-03T18:22:48.117Z,161.91
2024-04-03T18:24:50.066Z,163.45
2024-04-03T18:26:52.720Z,162.64
2024-04-03T18:28:54.551Z,198.18
2024-04-03T18:30:57.683Z,231.73
2024-04-03T18:33:00.841Z,201.73
2024-04-03T18:35:03.724Z,190.36
2024-04-03T18:37:05.988Z,185.00
2024-04-03T18:39:08.284Z,204.55
2024-04-03T18:41:10.035Z,225.09
2024-04-03T18:43:12.518Z,221.91
2024-04-03T18:45:15.049Z,222.91
2024-04-03T18:47:17.162Z,229.27
2024-04-03T18:49:19.665Z,218.36
2024-04-03T18:51:22.137Z,220.27
2024-04-03T18:53:24.133Z,221.55
2024-04-03T18:55:26.803Z,221.09
2024-04-03T18:57:29.552Z,267.64
2024-04-03T18:59:32.626Z,278.45
2024-04-03T19:01:36.123Z,264.45
2024-04-03T19:03:38.563Z,267.82
2024-04-03T19:05:40.970Z,281.45
2024-04-03T19:07:44.089Z,296.18
2024-04-03T19:09:46.347Z,308.73
2024-04-03T19:11:48.284Z,304.09
2024-04-03T19:13:50.592Z,306.00
2024-04-03T19:16:09.058Z,316.00
2024-04-03T19:18:14.224Z,330.45
2024-04-03T19:20:16.365Z,330.27
2024-04-03T19:22:19.289Z,328.00
2024-04-03T19:24:21.857Z,329.18
2024-04-03T19:26:24.362Z,324.91
2024-04-03T19:28:30.650Z,323.09
2024-04-03T19:30:32.844Z,327.09
2024-04-03T19:32:38.456Z,328.36
2024-04-03T19:34:41.075Z,307.18
2024-04-03T19:36:43.804Z,302.09
2024-04-03T19:38:46.175Z,300.27
2024-04-03T19:40:48.954Z,296.64
2024-04-03T19:42:53.816Z,296.55
2024-04-03T19:45:01.429Z,284.09
2024-04-03T19:47:04.329Z,275.73
2024-04-03T19:49:06.843Z,278.27
2024-04-03T19:51:08.721Z,267.55
2024-04-03T19:53:12.083Z,260.55
2024-04-03T19:55:14.649Z,240.45
2024-04-03T19:57:16.400Z,215.09
2024-04-03T19:59:18.315Z,207.27
2024-04-03T20:01:21.695Z,204.64
2024-04-03T20:03:23.447Z,189.55
2024-04-03T20:05:25.933Z,179.00
2024-04-03T20:07:27.590Z,168.64
2024-04-03T20:09:29.242Z,166.18
2024-04-03T20:11:30.886Z,174.27
2024-04-03T20:13:32.519Z,163.36
2024-04-03T20:15:34.160Z,155.82
2024-04-03T20:17:36.592Z,148.45
2024-04-03T20:19:38.218Z,141.91
2024-04-03T20:21:39.883Z,169.73
2024-04-03T20:23:41.572Z,205.09
2024-04-03T20:25:45.953Z,186.82
2024-04-03T20:27:47.614Z,159.18
2024-04-03T20:29:49.268Z,149.55
2024-04-03T20:31:50.895Z,158.55
2024-04-03T20:33:52.543Z,161.73
2024-04-03T20:35:56.025Z,162.73
2024-04-03T20:37:58.575Z,163.55
2024-04-03T20:40:01.165Z,165.36
2024-04-03T20:42:03.723Z,165.64
2024-04-03T20:44:05.382Z,170.36
2024-04-03T20:46:08.460Z,185.09
2024-04-03T20:48:10.075Z,183.18
2024-04-03T20:50:11.814Z,171.00
2024-04-03T20:52:13.449Z,166.91
2024-04-03T20:54:15.096Z,174.18
2024-04-03T20:56:17.132Z,156.55
2024-04-03T20:58:18.776Z,131.82
2024-04-03T21:00:20.425Z,113.64
2024-04-03T21:02:22.072Z,98.55
2024-04-03T21:04:23.711Z,83.73
2024-04-03T21:06:25.360Z,84.82
2024-04-03T21:08:26.969Z,80.45
2024-04-03T21:10:28.790Z,77.45
2024-04-03T21:12:32.379Z,70.00
2024-04-03T21:14:34.000Z,70.36
2024-04-03T21:16:35.629Z,64.82
2024-04-03T21:18:37.250Z,69.27
2024-04-03T21:20:38.879Z,83.09
2024-04-03T21:22:41.512Z,80.27
2024-04-03T21:24:43.382Z,95.82
2024-04-03T21:26:45.053Z,100.18
2024-04-03T21:28:46.691Z,96.09
2024-04-03T21:30:48.355Z,96.36
2024-04-03T21:32:49.991Z,107.45
2024-04-03T21:34:51.616Z,121.18
2024-04-03T21:36:53.303Z,121.91
2024-04-03T21:38:54.948Z,109.36
2024-04-03T21:40:56.589Z,129.18
2024-04-03T21:42:58.232Z,170.36
2024-04-03T21:44:59.976Z,173.00
2024-04-03T21:47:01.624Z,184.09
2024-04-03T21:49:03.254Z,175.82
2024-04-03T21:51:04.900Z,211.36
2024-04-03T21:53:11.564Z,259.09
2024-04-03T21:55:13.226Z,273.91
2024-04-03T21:57:14.853Z,285.55
2024-04-03T21:59:17.418Z,282.36
2024-04-03T22:01:19.053Z,261.82
2024-04-03T22:03:20.675Z,229.18
2024-04-03T22:05:22.456Z,194.18
2024-04-03T22:07:24.071Z,255.00
2024-04-03T22:09:25.798Z,311.27
2024-04-03T22:11:27.440Z,317.18
2024-04-03T22:13:29.060Z,319.45
2024-04-03T22:15:30.815Z,329.27
2024-04-03T22:17:32.486Z,351.45
2024-04-03T22:19:34.161Z,350.00
2024-04-03T22:21:35.824Z,338.55
2024-04-03T22:23:37.445Z,337.18
2024-04-03T22:25:39.071Z,334.55
2024-04-03T22:27:40.720Z,332.55
2024-04-03T22:29:43.579Z,331.27
2024-04-03T22:31:45.236Z,326.18
2024-04-03T22:33:46.892Z,316.91
2024-04-03T22:35:49.438Z,316.00
2024-04-03T22:37:51.067Z,309.45
2024-04-03T22:39:52.754Z,296.73
2024-04-03T22:41:54.424Z,301.36
2024-04-03T22:43:56.058Z,301.64
2024-04-03T22:45:58.666Z,301.00
2024-04-03T22:48:00.342Z,310.00
2024-04-03T22:50:02.001Z,338.36
2024-04-03T22:52:03.921Z,337.64
2024-04-03T22:54:05.573Z,331.64
2024-04-03T22:56:07.205Z,329.09
2024-04-03T22:58:08.855Z,336.64
2024-04-03T23:00:10.929Z,341.00
2024-04-03T23:02:12.598Z,338.82
2024-04-03T23:04:14.232Z,338.00
2024-04-03T23:06:15.863Z,336.45
2024-04-03T23:08:17.505Z,337.09
2024-04-03T23:10:19.168Z,339.00
2024-04-03T23:12:20.825Z,338.18
2024-04-03T23:14:22.441Z,336.18
2024-04-03T23:16:24.095Z,333.73
2024-04-03T23:18:25.898Z,323.73
2024-04-03T23:20:27.521Z,308.36
2024-04-03T23:22:29.162Z,304.09
2024-04-03T23:24:30.789Z,306.36
2024-04-03T23:26:32.429Z,316.27
2024-04-03T23:28:34.075Z,329.55
2024-04-03T23:30:35.697Z,331.09
2024-04-03T23:32:37.424Z,324.91
2024-04-03T23:34:39.045Z,319.27
2024-04-03T23:36:40.701Z,313.18
2024-04-03T23:38:42.333Z,307.55
2024-04-03T23:40:43.972Z,309.09
2024-04-03T23:42:45.673Z,310.73
2024-04-03T23:44:47.332Z,310.73
2024-04-03T23:46:48.957Z,300.91
2024-04-03T23:48:50.883Z,297.18
2024-04-03T23:50:53.595Z,296.00
2024-04-03T23:52:55.241Z,294.18
2024-04-03T23:54:56.872Z,296.45
2024-04-03T23:56:58.500Z,298.18
2024-04-03T23:59:00.120Z,299.36
